sensor_id;sensor_type;location;lat;lon;timestamp;pressure;altitude;pressure_sealevel;temperature;humidity
47592;BME280;33317;33.356;-117.184;2024-01-07T00:00:53;99484.35;;;28.52;22.29
47592;BME280;33317;33.356;-117.184;2024-01-07T00:03:22;99485.67;;;28.53;22.21
47592;BME280;33317;33.356;-117.184;2024-01-07T00:05:50;99487.06;;;28.57;22.46
47592;BME280;33317;33.356;-117.184;2024-01-07T00:08:19;99481.77;;;28.76;22.60
47592;BME280;33317;33.356;-117.184;2024-01-07T00:10:47;99480.57;;;28.76;22.54
47592;BME280;33317;33.356;-117.184;2024-01-07T00:13:16;99482.91;;;28.68;22.61
47592;BME280;33317;33.356;-117.184;2024-01-07T00:15:44;99487.09;;;28.66;22.61
47592;BME280;33317;33.356;-117.184;2024-01-07T00:18:12;99485.41;;;28.65;22.67
47592;BME280;33317;33.356;-117.184;2024-01-07T00:20:41;99478.50;;;28.58;22.79
47592;BME280;33317;33.356;-117.184;2024-01-07T00:23:09;99474.37;;;28.59;22.73
47592;BME280;33317;33.356;-117.184;2024-01-07T00:25:37;99468.25;;;28.80;22.66
47592;BME280;33317;33.356;-117.184;2024-01-07T00:28:06;99465.83;;;28.74;22.94
47592;BME280;33317;33.356;-117.184;2024-01-07T00:30:35;99466.84;;;28.69;22.93
47592;BME280;33317;33.356;-117.184;2024-01-07T00:33:03;99467.83;;;28.37;22.90
47592;BME280;33317;33.356;-117.184;2024-01-07T00:35:31;99462.99;;;28.35;22.89
47592;BME280;33317;33.356;-117.184;2024-01-07T00:37:59;99464.92;;;28.53;23.06
47592;BME280;33317;33.356;-117.184;2024-01-07T00:40:28;99462.76;;;28.48;23.13
47592;BME280;33317;33.356;-117.184;2024-01-07T00:42:56;99462.99;;;28.20;23.16
47592;BME280;33317;33.356;-117.184;2024-01-07T00:45:25;99465.88;;;28.62;23.15
47592;BME280;33317;33.356;-117.184;2024-01-07T00:47:53;99467.52;;;28.29;23.16
47592;BME280;33317;33.356;-117.184;2024-01-07T00:50:21;99467.20;;;28.21;23.25
47592;BME280;33317;33.356;-117.184;2024-01-07T00:52:50;99459.98;;;27.94;23.31
47592;BME280;33317;33.356;-117.184;2024-01-07T00:55:18;99454.59;;;28.08;23.51
47592;BME280;33317;33.356;-117.184;2024-01-07T00:57:47;99450.34;;;28.00;23.48
47592;BME280;33317;33.356;-117.184;2024-01-07T01:00:16;99445.76;;;27.91;23.53
47592;BME280;33317;33.356;-117.184;2024-01-07T01:02:44;99440.72;;;28.09;23.53
47592;BME280;33317;33.356;-117.184;2024-01-07T01:05:13;99435.88;;;28.22;23.64
47592;BME280;33317;33.356;-117.184;2024-01-07T01:07:41;99432.61;;;27.89;23.72
47592;BME280;33317;33.356;-117.184;2024-01-07T01:10:10;99435.13;;;28.02;23.95
47592;BME280;33317;33.356;-117.184;2024-01-07T01:12:38;99435.20;;;27.73;24.06
47592;BME280;33317;33.356;-117.184;2024-01-07T01:15:07;99432.69;;;27.46;24.04
47592;BME280;33317;33.356;-117.184;2024-01-07T01:17:35;99424.95;;;27.50;24.08
47592;BME280;33317;33.356;-117.184;2024-01-07T01:20:04;99420.99;;;27.67;24.33
47592;BME280;33317;33.356;-117.184;2024-01-07T01:22:33;99413.09;;;27.34;24.36
47592;BME280;33317;33.356;-117.184;2024-01-07T01:25:01;99411.16;;;27.27;24.54
47592;BME280;33317;33.356;-117.184;2024-01-07T01:27:29;99404.47;;;27.44;24.49
47592;BME280;33317;33.356;-117.184;2024-01-07T01:29:58;99395.18;;;27.39;24.58
47592;BME280;33317;33.356;-117.184;2024-01-07T01:32:26;99385.84;;;27.17;24.67
47592;BME280;33317;33.356;-117.184;2024-01-07T01:34:55;99377.19;;;27.08;24.93
47592;BME280;33317;33.356;-117.184;2024-01-07T01:37:23;99373.61;;;27.08;25.08
47592;BME280;33317;33.356;-117.184;2024-01-07T01:39:51;99372.02;;;26.82;24.93
47592;BME280;33317;33.356;-117.184;2024-01-07T01:42:20;99369.68;;;26.97;25.04
47592;BME280;33317;33.356;-117.184;2024-01-07T01:44:48;99373.48;;;26.91;25.18
47592;BME280;33317;33.356;-117.184;2024-01-07T01:47:17;99376.36;;;26.81;25.23
47592;BME280;33317;33.356;-117.184;2024-01-07T01:49:46;99374.38;;;26.75;25.30
47592;BME280;33317;33.356;-117.184;2024-01-07T01:52:14;99368.96;;;26.97;25.35
47592;BME280;33317;33.356;-117.184;2024-01-07T01:54:43;99366.28;;;26.62;25.31
47592;BME280;33317;33.356;-117.184;2024-01-07T01:57:16;99360.87;;;26.84;25.43
47592;BME280;33317;33.356;-117.184;2024-01-07T01:59:48;99366.09;;;26.50;25.51
47592;BME280;33317;33.356;-117.184;2024-01-07T02:02:17;99365.20;;;26.47;25.58
47592;BME280;33317;33.356;-117.184;2024-01-07T02:04:45;99372.05;;;26.65;25.64
47592;BME280;33317;33.356;-117.184;2024-01-07T02:07:13;99375.27;;;26.35;25.64
47592;BME280;33317;33.356;-117.184;2024-01-07T02:09:42;99376.82;;;26.31;25.74
47592;BME280;33317;33.356;-117.184;2024-01-07T02:12:10;99382.52;;;26.50;25.97
47592;BME280;33317;33.356;-117.184;2024-01-07T02:14:39;99382.41;;;26.40;26.02
47592;BME280;33317;33.356;-117.184;2024-01-07T02:17:07;99378.11;;;26.33;26.03
47592;BME280;33317;33.356;-117.184;2024-01-07T02:19:35;99377.94;;;25.98;26.30
47592;BME280;33317;33.356;-117.184;2024-01-07T02:22:04;99379.65;;;26.39;26.35
47592;BME280;33317;33.356;-117.184;2024-01-07T02:24:33;99376.22;;;26.09;26.31
47592;BME280;33317;33.356;-117.184;2024-01-07T02:27:05;99374.51;;;26.05;26.31
47592;BME280;33317;33.356;-117.184;2024-01-07T02:29:33;99374.92;;;26.19;26.40
47592;BME280;33317;33.356;-117.184;2024-01-07T02:32:02;99373.23;;;25.96;26.39
47592;BME280;33317;33.356;-117.184;2024-01-07T02:34:31;99370.41;;;25.91;26.57
47592;BME280;33317;33.356;-117.184;2024-01-07T02:36:59;99377.26;;;26.07;26.45
47592;BME280;33317;33.356;-117.184;2024-01-07T02:39:28;99386.53;;;26.01;26.42
47592;BME280;33317;33.356;-117.184;2024-01-07T02:41:58;99388.32;;;26.14;26.74
47592;BME280;33317;33.356;-117.184;2024-01-07T02:44:26;99386.83;;;25.89;26.39
47592;BME280;33317;33.356;-117.184;2024-01-07T02:46:55;99385.57;;;25.62;26.62
47592;BME280;33317;33.356;-117.184;2024-01-07T02:49:23;99388.22;;;25.68;26.91
47592;BME280;33317;33.356;-117.184;2024-01-07T02:51:51;99381.42;;;25.46;26.82
47592;BME280;33317;33.356;-117.184;2024-01-07T02:54:20;99376.60;;;25.83;26.68
47592;BME280;33317;33.356;-117.184;2024-01-07T02:56:48;99370.81;;;25.59;26.90
47592;BME280;33317;33.356;-117.184;2024-01-07T02:59:16;99370.19;;;25.55;26.66
47592;BME280;33317;33.356;-117.184;2024-01-07T03:01:45;99366.19;;;25.61;27.30
47592;BME280;33317;33.356;-117.184;2024-01-07T03:04:15;99366.74;;;25.52;27.18
47592;BME280;33317;33.356;-117.184;2024-01-07T03:06:45;99367.61;;;25.53;27.01
47592;BME280;33317;33.356;-117.184;2024-01-07T03:09:13;99367.71;;;24.94;27.53
47592;BME280;33317;33.356;-117.184;2024-01-07T03:11:42;99377.06;;;25.42;27.08
47592;BME280;33317;33.356;-117.184;2024-01-07T03:14:10;99378.76;;;25.49;26.98
47592;BME280;33317;33.356;-117.184;2024-01-07T03:16:38;99370.05;;;24.96;27.01
47592;BME280;33317;33.356;-117.184;2024-01-07T03:19:07;99372.45;;;25.22;26.72
47592;BME280;33317;33.356;-117.184;2024-01-07T03:21:36;99373.89;;;25.24;26.66
47592;BME280;33317;33.356;-117.184;2024-01-07T03:24:05;99375.28;;;25.14;26.89
47592;BME280;33317;33.356;-117.184;2024-01-07T03:26:34;99377.45;;;24.50;27.87
47592;BME280;33317;33.356;-117.184;2024-01-07T03:29:02;99379.36;;;25.26;27.45
47592;BME280;33317;33.356;-117.184;2024-01-07T03:31:32;99377.29;;;24.99;27.88
47592;BME280;33317;33.356;-117.184;2024-01-07T03:34:00;99382.48;;;24.84;27.44
47592;BME280;33317;33.356;-117.184;2024-01-07T03:36:31;99372.89;;;25.13;27.08
47592;BME280;33317;33.356;-117.184;2024-01-07T03:39:00;99357.93;;;25.11;27.17
47592;BME280;33317;33.356;-117.184;2024-01-07T03:41:28;99348.65;;;25.10;27.27
47592;BME280;33317;33.356;-117.184;2024-01-07T03:43:57;99343.13;;;25.09;27.07
47592;BME280;33317;33.356;-117.184;2024-01-07T03:46:26;99347.85;;;25.02;27.14
47592;BME280;33317;33.356;-117.184;2024-01-07T03:48:55;99351.40;;;24.94;27.43
47592;BME280;33317;33.356;-117.184;2024-01-07T03:51:24;99352.83;;;24.82;27.78
47592;BME280;33317;33.356;-117.184;2024-01-07T03:53:52;99359.15;;;24.92;27.45
47592;BME280;33317;33.356;-117.184;2024-01-07T03:56:22;99363.07;;;25.11;27.23
47592;BME280;33317;33.356;-117.184;2024-01-07T03:58:50;99369.69;;;24.72;27.65
47592;BME280;33317;33.356;-117.184;2024-01-07T04:01:19;99371.97;;;25.07;27.31
47592;BME280;33317;33.356;-117.184;2024-01-07T04:03:50;99377.07;;;25.15;27.08
47592;BME280;33317;33.356;-117.184;2024-01-07T04:06:20;99375.57;;;25.14;27.27
47592;BME280;33317;33.356;-117.184;2024-01-07T04:08:49;99366.32;;;24.97;27.09
47592;BME280;33317;33.356;-117.184;2024-01-07T04:11:18;99361.76;;;24.89;27.23
47592;BME280;33317;33.356;-117.184;2024-01-07T04:13:47;99362.35;;;25.03;27.44
47592;BME280;33317;33.356;-117.184;2024-01-07T04:16:19;99360.82;;;24.09;28.70
47592;BME280;33317;33.356;-117.184;2024-01-07T04:18:47;99356.98;;;24.98;27.44
47592;BME280;33317;33.356;-117.184;2024-01-07T04:21:15;99354.38;;;25.20;27.77
47592;BME280;33317;33.356;-117.184;2024-01-07T04:23:44;99361.46;;;25.13;27.71
47592;BME280;33317;33.356;-117.184;2024-01-07T04:26:12;99357.77;;;25.47;27.85
47592;BME280;33317;33.356;-117.184;2024-01-07T04:28:42;99356.03;;;25.28;27.43
47592;BME280;33317;33.356;-117.184;2024-01-07T04:31:11;99359.66;;;25.24;27.42
47592;BME280;33317;33.356;-117.184;2024-01-07T04:33:39;99354.86;;;24.98;27.93
47592;BME280;33317;33.356;-117.184;2024-01-07T04:36:08;99355.18;;;25.10;28.03
47592;BME280;33317;33.356;-117.184;2024-01-07T04:38:36;99346.62;;;24.93;27.74
47592;BME280;33317;33.356;-117.184;2024-01-07T04:41:04;99337.03;;;25.51;27.21
47592;BME280;33317;33.356;-117.184;2024-01-07T04:43:34;99331.77;;;25.26;27.86
47592;BME280;33317;33.356;-117.184;2024-01-07T04:46:02;99335.91;;;24.31;28.60
47592;BME280;33317;33.356;-117.184;2024-01-07T04:48:31;99334.65;;;24.86;28.25
47592;BME280;33317;33.356;-117.184;2024-01-07T04:51:00;99328.01;;;24.23;28.91
47592;BME280;33317;33.356;-117.184;2024-01-07T04:53:28;99327.71;;;24.63;28.70
47592;BME280;33317;33.356;-117.184;2024-01-07T04:55:56;99329.89;;;24.68;28.43
47592;BME280;33317;33.356;-117.184;2024-01-07T04:58:25;99322.89;;;25.02;28.06
47592;BME280;33317;33.356;-117.184;2024-01-07T05:00:54;99324.90;;;25.24;27.66
47592;BME280;33317;33.356;-117.184;2024-01-07T05:03:23;99321.50;;;24.96;27.94
47592;BME280;33317;33.356;-117.184;2024-01-07T05:05:52;99325.67;;;25.45;28.07
47592;BME280;33317;33.356;-117.184;2024-01-07T05:08:21;99324.95;;;24.98;28.33
47592;BME280;33317;33.356;-117.184;2024-01-07T05:10:50;99313.94;;;24.70;28.89
47592;BME280;33317;33.356;-117.184;2024-01-07T05:13:18;99312.05;;;24.77;28.73
47592;BME280;33317;33.356;-117.184;2024-01-07T05:15:46;99319.23;;;24.80;28.37
47592;BME280;33317;33.356;-117.184;2024-01-07T05:18:15;99320.18;;;24.99;28.23
47592;BME280;33317;33.356;-117.184;2024-01-07T05:20:43;99317.19;;;25.34;28.13
47592;BME280;33317;33.356;-117.184;2024-01-07T05:23:13;99311.99;;;25.21;28.24
47592;BME280;33317;33.356;-117.184;2024-01-07T05:25:43;99313.99;;;25.22;28.46
47592;BME280;33317;33.356;-117.184;2024-01-07T05:28:13;99311.30;;;25.20;28.24
47592;BME280;33317;33.356;-117.184;2024-01-07T05:30:44;99304.80;;;25.34;28.04
47592;BME280;33317;33.356;-117.184;2024-01-07T05:33:14;99307.43;;;24.99;28.32
47592;BME280;33317;33.356;-117.184;2024-01-07T05:35:44;99301.67;;;25.23;28.19
47592;BME280;33317;33.356;-117.184;2024-01-07T05:38:12;99297.15;;;25.51;27.97
47592;BME280;33317;33.356;-117.184;2024-01-07T05:40:41;99291.04;;;25.32;27.95
47592;BME280;33317;33.356;-117.184;2024-01-07T05:43:09;99292.09;;;25.51;28.02
47592;BME280;33317;33.356;-117.184;2024-01-07T05:45:37;99281.53;;;25.42;27.91
47592;BME280;33317;33.356;-117.184;2024-01-07T05:48:06;99285.15;;;25.24;27.92
47592;BME280;33317;33.356;-117.184;2024-01-07T05:50:36;99279.33;;;25.33;27.93
47592;BME280;33317;33.356;-117.184;2024-01-07T05:53:04;99273.58;;;25.60;27.84
47592;BME280;33317;33.356;-117.184;2024-01-07T05:55:33;99272.09;;;25.69;27.71
47592;BME280;33317;33.356;-117.184;2024-01-07T05:58:01;99269.66;;;25.66;27.87
47592;BME280;33317;33.356;-117.184;2024-01-07T06:00:30;99265.64;;;25.43;27.83
47592;BME280;33317;33.356;-117.184;2024-01-07T06:02:59;99263.50;;;25.11;28.38
47592;BME280;33317;33.356;-117.184;2024-01-07T06:05:27;99255.70;;;25.18;28.08
47592;BME280;33317;33.356;-117.184;2024-01-07T06:07:56;99252.73;;;25.20;28.37
47592;BME280;33317;33.356;-117.184;2024-01-07T06:10:24;99240.57;;;25.09;28.47
47592;BME280;33317;33.356;-117.184;2024-01-07T06:12:53;99231.24;;;25.06;28.18
47592;BME280;33317;33.356;-117.184;2024-01-07T06:15:21;99220.94;;;25.27;28.23
47592;BME280;33317;33.356;-117.184;2024-01-07T06:17:50;99223.81;;;25.49;28.24
47592;BME280;33317;33.356;-117.184;2024-01-07T06:20:19;99216.75;;;25.27;28.18
47592;BME280;33317;33.356;-117.184;2024-01-07T06:22:47;99214.23;;;25.39;28.01
47592;BME280;33317;33.356;-117.184;2024-01-07T06:25:16;99210.92;;;25.30;28.16
47592;BME280;33317;33.356;-117.184;2024-01-07T06:27:44;99220.23;;;24.98;28.30
47592;BME280;33317;33.356;-117.184;2024-01-07T06:30:13;99227.46;;;25.19;28.26
47592;BME280;33317;33.356;-117.184;2024-01-07T06:32:43;99227.62;;;25.14;28.35
47592;BME280;33317;33.356;-117.184;2024-01-07T06:35:11;99222.01;;;25.44;28.35
47592;BME280;33317;33.356;-117.184;2024-01-07T06:37:40;99221.41;;;24.92;28.41
47592;BME280;33317;33.356;-117.184;2024-01-07T06:40:09;99212.46;;;25.00;28.53
47592;BME280;33317;33.356;-117.184;2024-01-07T06:42:38;99210.12;;;25.15;28.39
47592;BME280;33317;33.356;-117.184;2024-01-07T06:45:07;99202.11;;;24.99;28.30
47592;BME280;33317;33.356;-117.184;2024-01-07T06:47:35;99202.11;;;25.17;28.39
47592;BME280;33317;33.356;-117.184;2024-01-07T06:50:04;99195.06;;;25.22;28.22
47592;BME280;33317;33.356;-117.184;2024-01-07T06:52:33;99184.06;;;25.00;28.32
47592;BME280;33317;33.356;-117.184;2024-01-07T06:55:01;99179.65;;;24.96;28.30
47592;BME280;33317;33.356;-117.184;2024-01-07T06:57:29;99173.48;;;24.96;28.54
47592;BME280;33317;33.356;-117.184;2024-01-07T06:59:58;99172.11;;;24.73;28.47
47592;BME280;33317;33.356;-117.184;2024-01-07T07:02:26;99176.11;;;25.22;28.51
47592;BME280;33317;33.356;-117.184;2024-01-07T07:04:54;99177.52;;;24.90;28.77
47592;BME280;33317;33.356;-117.184;2024-01-07T07:07:23;99171.37;;;25.13;28.91
47592;BME280;33317;33.356;-117.184;2024-01-07T07:09:51;99164.31;;;24.72;29.01
47592;BME280;33317;33.356;-117.184;2024-01-07T07:12:20;99163.89;;;24.33;29.08
47592;BME280;33317;33.356;-117.184;2024-01-07T07:14:48;99167.97;;;23.99;29.72
47592;BME280;33317;33.356;-117.184;2024-01-07T07:17:17;99170.50;;;23.61;30.22
47592;BME280;33317;33.356;-117.184;2024-01-07T07:19:45;99170.34;;;24.24;29.64
47592;BME280;33317;33.356;-117.184;2024-01-07T07:22:13;99167.65;;;23.85;29.97
47592;BME280;33317;33.356;-117.184;2024-01-07T07:24:42;99163.99;;;23.76;29.96
47592;BME280;33317;33.356;-117.184;2024-01-07T07:27:10;99158.19;;;23.94;30.11
47592;BME280;33317;33.356;-117.184;2024-01-07T07:29:39;99162.85;;;23.48;30.67
47592;BME280;33317;33.356;-117.184;2024-01-07T07:32:08;99152.46;;;23.68;30.76
47592;BME280;33317;33.356;-117.184;2024-01-07T07:34:36;99142.62;;;23.40;30.45
47592;BME280;33317;33.356;-117.184;2024-01-07T07:37:04;99135.25;;;23.80;30.13
47592;BME280;33317;33.356;-117.184;2024-01-07T07:39:32;99131.22;;;23.83;30.16
47592;BME280;33317;33.356;-117.184;2024-01-07T07:42:01;99119.22;;;23.94;30.23
47592;BME280;33317;33.356;-117.184;2024-01-07T07:44:29;99110.58;;;23.39;30.30
47592;BME280;33317;33.356;-117.184;2024-01-07T07:46:58;99107.51;;;23.66;30.46
47592;BME280;33317;33.356;-117.184;2024-01-07T07:49:26;99102.35;;;23.17;30.72
47592;BME280;33317;33.356;-117.184;2024-01-07T07:51:56;99094.51;;;22.53;31.87
47592;BME280;33317;33.356;-117.184;2024-01-07T07:54:24;99095.99;;;22.46;31.92
47592;BME280;33317;33.356;-117.184;2024-01-07T07:56:52;99095.28;;;22.22;31.60
47592;BME280;33317;33.356;-117.184;2024-01-07T07:59:21;99094.92;;;22.68;31.60
47592;BME280;33317;33.356;-117.184;2024-01-07T08:01:49;99088.09;;;22.06;32.38
47592;BME280;33317;33.356;-117.184;2024-01-07T08:04:18;99081.91;;;22.73;31.52
47592;BME280;33317;33.356;-117.184;2024-01-07T08:06:46;99084.96;;;22.47;31.90
47592;BME280;33317;33.356;-117.184;2024-01-07T08:09:14;99086.60;;;22.53;32.17
47592;BME280;33317;33.356;-117.184;2024-01-07T08:11:43;99086.28;;;22.16;32.45
47592;BME280;33317;33.356;-117.184;2024-01-07T08:14:11;99086.42;;;21.29;33.30
47592;BME280;33317;33.356;-117.184;2024-01-07T08:16:40;99079.70;;;21.82;33.05
47592;BME280;33317;33.356;-117.184;2024-01-07T08:19:08;99076.91;;;21.92;32.81
47592;BME280;33317;33.356;-117.184;2024-01-07T08:21:36;99066.98;;;22.10;32.65
47592;BME280;33317;33.356;-117.184;2024-01-07T08:24:05;99051.54;;;22.01;32.71
47592;BME280;33317;33.356;-117.184;2024-01-07T08:26:33;99039.42;;;21.97;32.67
47592;BME280;33317;33.356;-117.184;2024-01-07T08:29:02;99028.10;;;21.90;32.29
47592;BME280;33317;33.356;-117.184;2024-01-07T08:31:30;99023.93;;;22.02;32.22
47592;BME280;33317;33.356;-117.184;2024-01-07T08:33:59;99020.37;;;22.24;32.28
47592;BME280;33317;33.356;-117.184;2024-01-07T08:36:28;99023.57;;;22.18;31.96
47592;BME280;33317;33.356;-117.184;2024-01-07T08:38:56;99027.08;;;22.03;32.18
47592;BME280;33317;33.356;-117.184;2024-01-07T08:41:26;99030.04;;;21.94;32.16
47592;BME280;33317;33.356;-117.184;2024-01-07T08:43:54;99032.00;;;22.05;32.29
47592;BME280;33317;33.356;-117.184;2024-01-07T08:46:22;99028.99;;;22.12;32.22
47592;BME280;33317;33.356;-117.184;2024-01-07T08:48:51;99024.46;;;21.99;32.36
47592;BME280;33317;33.356;-117.184;2024-01-07T08:51:19;99025.93;;;21.86;32.62
47592;BME280;33317;33.356;-117.184;2024-01-07T08:53:48;99025.25;;;21.78;32.67
47592;BME280;33317;33.356;-117.184;2024-01-07T08:56:16;99022.23;;;21.89;32.36
47592;BME280;33317;33.356;-117.184;2024-01-07T08:58:44;99018.81;;;21.82;32.82
47592;BME280;33317;33.356;-117.184;2024-01-07T09:01:12;99021.30;;;21.79;32.77
47592;BME280;33317;33.356;-117.184;2024-01-07T09:03:41;99020.69;;;21.83;32.74
47592;BME280;33317;33.356;-117.184;2024-01-07T09:06:09;99017.28;;;21.73;32.54
47592;BME280;33317;33.356;-117.184;2024-01-07T09:08:38;99012.15;;;22.00;32.22
47592;BME280;33317;33.356;-117.184;2024-01-07T09:11:06;99001.16;;;21.92;32.64
47592;BME280;33317;33.356;-117.184;2024-01-07T09:13:35;98991.34;;;21.64;32.63
47592;BME280;33317;33.356;-117.184;2024-01-07T09:16:03;98986.80;;;21.67;32.84
47592;BME280;33317;33.356;-117.184;2024-01-07T09:18:32;98978.44;;;21.81;32.73
47592;BME280;33317;33.356;-117.184;2024-01-07T09:21:00;98977.67;;;21.72;32.56
47592;BME280;33317;33.356;-117.184;2024-01-07T09:23:28;98977.55;;;22.27;32.07
47592;BME280;33317;33.356;-117.184;2024-01-07T09:25:57;98966.30;;;22.08;32.08
47592;BME280;33317;33.356;-117.184;2024-01-07T09:28:25;98963.40;;;21.96;32.24
47592;BME280;33317;33.356;-117.184;2024-01-07T09:30:53;98960.40;;;21.98;32.14
47592;BME280;33317;33.356;-117.184;2024-01-07T09:33:21;98960.53;;;22.31;31.74
47592;BME280;33317;33.356;-117.184;2024-01-07T09:35:50;98956.74;;;22.36;31.63
47592;BME280;33317;33.356;-117.184;2024-01-07T09:38:19;98953.27;;;22.52;31.48
47592;BME280;33317;33.356;-117.184;2024-01-07T09:40:47;98946.41;;;22.53;31.02
47592;BME280;33317;33.356;-117.184;2024-01-07T09:43:15;98952.75;;;22.73;31.13
47592;BME280;33317;33.356;-117.184;2024-01-07T09:45:46;98950.87;;;22.97;31.10
47592;BME280;33317;33.356;-117.184;2024-01-07T09:48:15;98942.36;;;22.74;31.14
47592;BME280;33317;33.356;-117.184;2024-01-07T09:50:44;98937.75;;;22.05;31.63
47592;BME280;33317;33.356;-117.184;2024-01-07T09:53:15;98937.41;;;22.43;31.48
47592;BME280;33317;33.356;-117.184;2024-01-07T09:55:54;98923.88;;;22.70;31.11
47592;BME280;33317;33.356;-117.184;2024-01-07T09:58:25;98900.95;;;22.25;31.66
47592;BME280;33317;33.356;-117.184;2024-01-07T10:00:55;98890.50;;;22.74;31.36
47592;BME280;33317;33.356;-117.184;2024-01-07T10:03:23;98896.78;;;22.13;31.45
47592;BME280;33317;33.356;-117.184;2024-01-07T10:05:52;98893.48;;;22.23;31.67
47592;BME280;33317;33.356;-117.184;2024-01-07T10:08:21;98894.45;;;22.21;31.67
47592;BME280;33317;33.356;-117.184;2024-01-07T10:10:49;98889.63;;;22.21;31.67
47592;BME280;33317;33.356;-117.184;2024-01-07T10:13:18;98880.26;;;22.56;31.50
47592;BME280;33317;33.356;-117.184;2024-01-07T10:15:47;98874.92;;;21.91;31.71
47592;BME280;33317;33.356;-117.184;2024-01-07T10:18:15;98870.81;;;22.54;31.30
47592;BME280;33317;33.356;-117.184;2024-01-07T10:20:44;98873.24;;;21.80;31.84
47592;BME280;33317;33.356;-117.184;2024-01-07T10:24:20;98875.27;;;22.23;31.65
47592;BME280;33317;33.356;-117.184;2024-01-07T10:26:52;98882.29;;;21.78;31.85
47592;BME280;33317;33.356;-117.184;2024-01-07T10:29:22;98891.09;;;22.53;31.33
47592;BME280;33317;33.356;-117.184;2024-01-07T10:31:50;98895.18;;;22.30;31.29
47592;BME280;33317;33.356;-117.184;2024-01-07T10:34:20;98881.13;;;22.62;30.91
47592;BME280;33317;33.356;-117.184;2024-01-07T10:36:52;98884.29;;;22.40;31.16
47592;BME280;33317;33.356;-117.184;2024-01-07T10:39:21;98884.98;;;22.50;31.07
47592;BME280;33317;33.356;-117.184;2024-01-07T10:41:50;98888.05;;;22.65;30.90
47592;BME280;33317;33.356;-117.184;2024-01-07T10:44:20;98878.91;;;22.67;31.16
47592;BME280;33317;33.356;-117.184;2024-01-07T10:46:48;98869.27;;;22.22;31.39
47592;BME280;33317;33.356;-117.184;2024-01-07T10:49:20;98866.75;;;22.69;31.38
47592;BME280;33317;33.356;-117.184;2024-01-07T10:52:00;98871.60;;;22.44;31.39
47592;BME280;33317;33.356;-117.184;2024-01-07T10:54:30;98862.86;;;22.32;31.56
47592;BME280;33317;33.356;-117.184;2024-01-07T10:57:00;98864.46;;;21.96;31.93
47592;BME280;33317;33.356;-117.184;2024-01-07T10:59:31;98856.56;;;22.13;31.76
47592;BME280;33317;33.356;-117.184;2024-01-07T11:02:00;98849.51;;;22.01;31.92
47592;BME280;33317;33.356;-117.184;2024-01-07T11:04:37;98845.82;;;21.97;31.93
47592;BME280;33317;33.356;-117.184;2024-01-07T11:07:16;98843.01;;;21.41;32.28
47592;BME280;33317;33.356;-117.184;2024-01-07T11:09:55;98843.83;;;21.86;32.13
47592;BME280;33317;33.356;-117.184;2024-01-07T11:12:27;98840.04;;;22.03;31.91
47592;BME280;33317;33.356;-117.184;2024-01-07T11:14:56;98837.86;;;21.90;32.06
47592;BME280;33317;33.356;-117.184;2024-01-07T11:17:42;98832.22;;;21.74;31.92
47592;BME280;33317;33.356;-117.184;2024-01-07T11:20:18;98823.23;;;21.68;32.32
47592;BME280;33317;33.356;-117.184;2024-01-07T11:22:46;98829.62;;;21.66;32.55
47592;BME280;33317;33.356;-117.184;2024-01-07T11:25:31;98836.97;;;21.49;32.76
47592;BME280;33317;33.356;-117.184;2024-01-07T11:28:02;98836.15;;;21.84;32.42
47592;BME280;33317;33.356;-117.184;2024-01-07T11:30:38;98832.42;;;21.60;32.12
47592;BME280;33317;33.356;-117.184;2024-01-07T11:33:07;98831.25;;;22.02;32.21
47592;BME280;33317;33.356;-117.184;2024-01-07T11:35:56;98833.95;;;22.31;31.80
47592;BME280;33317;33.356;-117.184;2024-01-07T11:38:25;98834.64;;;21.93;32.00
47592;BME280;33317;33.356;-117.184;2024-01-07T11:40:56;98841.76;;;22.08;31.81
47592;BME280;33317;33.356;-117.184;2024-01-07T11:43:25;98843.36;;;22.03;31.53
47592;BME280;33317;33.356;-117.184;2024-01-07T11:45:53;98841.99;;;22.23;31.57
47592;BME280;33317;33.356;-117.184;2024-01-07T11:48:21;98840.58;;;22.14;31.68
47592;BME280;33317;33.356;-117.184;2024-01-07T11:50:50;98838.99;;;22.30;31.48
47592;BME280;33317;33.356;-117.184;2024-01-07T11:53:18;98838.84;;;21.90;31.94
47592;BME280;33317;33.356;-117.184;2024-01-07T11:55:47;98838.34;;;21.79;32.36
47592;BME280;33317;33.356;-117.184;2024-01-07T11:58:15;98829.41;;;21.52;32.10
47592;BME280;33317;33.356;-117.184;2024-01-07T12:00:44;98824.65;;;21.78;32.37
47592;BME280;33317;33.356;-117.184;2024-01-07T12:03:12;98821.50;;;21.90;32.25
47592;BME280;33317;33.356;-117.184;2024-01-07T12:05:40;98825.07;;;21.65;32.53
47592;BME280;33317;33.356;-117.184;2024-01-07T12:08:09;98827.59;;;21.87;32.23
47592;BME280;33317;33.356;-117.184;2024-01-07T12:10:38;98823.85;;;21.47;32.67
47592;BME280;33317;33.356;-117.184;2024-01-07T12:13:07;98832.91;;;21.61;32.53
47592;BME280;33317;33.356;-117.184;2024-01-07T12:15:35;98821.91;;;21.11;33.11
47592;BME280;33317;33.356;-117.184;2024-01-07T12:18:05;98825.10;;;21.78;32.34
47592;BME280;33317;33.356;-117.184;2024-01-07T12:20:33;98821.51;;;21.33;32.85
47592;BME280;33317;33.356;-117.184;2024-01-07T12:23:06;98816.56;;;21.36;32.74
47592;BME280;33317;33.356;-117.184;2024-01-07T12:25:35;98809.53;;;21.59;32.43
47592;BME280;33317;33.356;-117.184;2024-01-07T12:28:07;98814.82;;;21.38;32.64
47592;BME280;33317;33.356;-117.184;2024-01-07T12:30:35;98817.35;;;20.97;33.06
47592;BME280;33317;33.356;-117.184;2024-01-07T12:33:05;98820.00;;;21.20;32.83
47592;BME280;33317;33.356;-117.184;2024-01-07T12:35:34;98828.39;;;20.66;33.38
47592;BME280;33317;33.356;-117.184;2024-01-07T12:38:04;98827.35;;;20.92;33.07
47592;BME280;33317;33.356;-117.184;2024-01-07T12:40:33;98827.38;;;21.00;32.93